createdAt,value
2016-11-23T00:00:57.216Z,0
2016-11-23T00:02:05.896Z,0
2016-11-23T00:03:14.565Z,0
2016-11-23T00:04:23.555Z,0
2016-11-23T00:05:32.199Z,0
2016-11-23T00:06:40.846Z,0
2016-11-23T00:07:49.467Z,0
2016-11-23T00:08:58.139Z,0
2016-11-23T00:10:06.773Z,0
2016-11-23T00:11:15.461Z,0
2016-11-23T00:12:24.082Z,0
2016-11-23T00:13:32.711Z,0
2016-11-23T00:14:41.386Z,0
2016-11-23T00:15:50.040Z,0
2016-11-23T00:16:58.670Z,0
2016-11-23T00:18:07.358Z,0
2016-11-23T00:19:16.062Z,0
2016-11-23T00:20:24.675Z,0
2016-11-23T00:21:33.310Z,0
2016-11-23T00:22:41.971Z,0
2016-11-23T00:23:50.638Z,0
2016-11-23T00:24:59.268Z,0
2016-11-23T00:26:07.880Z,0
2016-11-23T00:27:16.511Z,0
2016-11-23T00:28:25.142Z,0
2016-11-23T00:29:33.773Z,0
2016-11-23T00:30:42.365Z,0
2016-11-23T00:31:51.000Z,0
2016-11-23T00:32:59.683Z,0
2016-11-23T00:34:08.621Z,0
2016-11-23T00:35:17.225Z,0
2016-11-23T00:36:25.880Z,0
2016-11-23T00:37:34.523Z,0
2016-11-23T00:38:43.197Z,0
2016-11-23T00:39:51.868Z,0
2016-11-23T00:41:00.541Z,0
2016-11-23T00:42:09.203Z,0
2016-11-23T00:43:17.857Z,0
2016-11-23T00:44:26.531Z,0
2016-11-23T00:45:35.166Z,0
2016-11-23T00:46:43.789Z,0
2016-11-23T00:47:52.395Z,0
2016-11-23T00:49:01.088Z,0
2016-11-23T00:50:09.726Z,0
2016-11-23T00:51:18.356Z,0
2016-11-23T00:52:27.002Z,0
2016-11-23T00:53:35.697Z,0
2016-11-23T00:54:44.345Z,0
2016-11-23T00:55:52.985Z,0
2016-11-23T00:57:01.653Z,0
2016-11-23T00:58:10.282Z,0
2016-11-23T00:59:18.920Z,0
2016-11-23T01:00:27.574Z,0
2016-11-23T01:01:36.249Z,0
2016-11-23T01:02:44.892Z,0
2016-11-23T01:03:53.522Z,0
2016-11-23T01:05:02.160Z,0
2016-11-23T01:06:10.798Z,0
2016-11-23T01:07:19.449Z,0
2016-11-23T01:08:28.107Z,0
2016-11-23T01:09:37.019Z,0
2016-11-23T01:10:45.690Z,0
2016-11-23T01:11:54.353Z,0
2016-11-23T01:13:03.016Z,0
2016-11-23T01:14:11.654Z,0
2016-11-23T01:15:20.291Z,0
2016-11-23T01:16:28.954Z,0
2016-11-23T01:17:37.595Z,0
2016-11-23T01:18:46.230Z,0
2016-11-23T01:19:54.876Z,0
2016-11-23T01:21:03.512Z,0
2016-11-23T01:22:12.170Z,0
2016-11-23T01:23:21.102Z,0
2016-11-23T01:24:29.735Z,0
2016-11-23T01:25:38.382Z,0
2016-11-23T01:26:47.028Z,0
2016-11-23T01:27:55.707Z,0
2016-11-23T01:29:04.354Z,0
2016-11-23T01:30:12.991Z,0
2016-11-23T01:31:21.615Z,0
2016-11-23T01:32:30.272Z,0
2016-11-23T01:33:38.913Z,0
2016-11-23T01:34:47.554Z,0
2016-11-23T01:35:56.222Z,0
2016-11-23T01:37:04.851Z,0
2016-11-23T01:38:13.497Z,0
2016-11-23T01:39:22.110Z,0
2016-11-23T01:40:30.724Z,0
2016-11-23T01:41:39.377Z,0
2016-11-23T01:42:47.973Z,0
2016-11-23T01:43:56.603Z,0
2016-11-23T01:45:05.249Z,0
2016-11-23T01:46:13.920Z,0
2016-11-23T01:47:22.558Z,0
2016-11-23T01:48:31.179Z,0
2016-11-23T01:49:39.826Z,0
2016-11-23T01:50:48.448Z,0
2016-11-23T01:51:57.068Z,0
2016-11-23T01:53:05.739Z,0
2016-11-23T01:54:14.360Z,0
2016-11-23T01:55:22.989Z,0
2016-11-23T01:56:31.627Z,0
2016-11-23T01:57:40.306Z,0
2016-11-23T01:58:48.977Z,0
2016-11-23T01:59:57.608Z,0
2016-11-23T02:01:06.238Z,0
2016-11-23T02:02:14.907Z,0
2016-11-23T02:03:23.546Z,0
2016-11-23T02:04:32.200Z,0
2016-11-23T02:05:40.822Z,0
2016-11-23T02:06:49.443Z,0
2016-11-23T02:07:58.163Z,0
2016-11-23T02:09:06.809Z,0
2016-11-23T02:10:15.447Z,0
2016-11-23T02:11:24.426Z,0
2016-11-23T02:12:33.060Z,0
2016-11-23T02:13:41.752Z,0
2016-11-23T02:14:50.415Z,0
2016-11-23T02:15:59.094Z,0
2016-11-23T02:17:07.782Z,0
2016-11-23T02:18:16.445Z,0
2016-11-23T02:19:25.100Z,0
2016-11-23T02:20:33.746Z,0
2016-11-23T02:21:42.392Z,0
2016-11-23T02:22:51.037Z,0
2016-11-23T02:23:59.669Z,0
2016-11-23T02:25:08.335Z,0
2016-11-23T02:26:16.985Z,0
2016-11-23T02:27:25.680Z,0
2016-11-23T02:28:34.302Z,0
2016-11-23T02:29:42.939Z,0
2016-11-23T02:30:51.566Z,0
2016-11-23T02:32:00.199Z,0
2016-11-23T02:33:08.805Z,0
2016-11-23T02:34:17.449Z,0
2016-11-23T02:35:26.078Z,0
2016-11-23T02:36:34.733Z,0
2016-11-23T02:37:43.387Z,0
2016-11-23T02:38:52.018Z,0
2016-11-23T02:40:00.656Z,0
2016-11-23T02:41:09.334Z,0
2016-11-23T02:42:18.030Z,0
2016-11-23T02:43:26.667Z,0
2016-11-23T02:44:35.306Z,0
2016-11-23T02:45:43.993Z,0
2016-11-23T02:46:52.631Z,0
2016-11-23T02:48:01.253Z,0
2016-11-23T02:49:09.923Z,0
2016-11-23T02:50:18.577Z,0
2016-11-23T02:51:27.215Z,0
2016-11-23T02:52:36.187Z,0
2016-11-23T02:53:44.841Z,0
2016-11-23T02:54:53.478Z,0
2016-11-23T02:56:02.133Z,0
2016-11-23T02:57:10.796Z,0
2016-11-23T02:58:19.443Z,0
2016-11-23T02:59:28.121Z,0
2016-11-23T03:00:36.802Z,0
2016-11-23T03:01:45.439Z,0
2016-11-23T03:02:54.079Z,0
2016-11-23T03:04:02.722Z,0
2016-11-23T03:05:11.343Z,0
2016-11-23T03:06:19.965Z,0
2016-11-23T03:07:28.636Z,0
2016-11-23T03:08:37.269Z,0
2016-11-23T03:09:45.882Z,0
2016-11-23T03:10:54.533Z,0
2016-11-23T03:12:03.195Z,0
2016-11-23T03:13:11.805Z,0
2016-11-23T03:14:20.412Z,0
2016-11-23T03:15:29.051Z,0
2016-11-23T03:16:37.713Z,0
2016-11-23T03:17:46.368Z,0
2016-11-23T03:18:55.036Z,0
2016-11-23T03:20:03.693Z,0
2016-11-23T03:21:12.339Z,0
2016-11-23T03:22:20.993Z,0
2016-11-23T03:23:29.656Z,0
2016-11-23T03:24:38.327Z,0
2016-11-23T03:25:46.957Z,0
2016-11-23T03:26:55.594Z,0
2016-11-23T03:28:04.240Z,0
2016-11-23T03:29:12.895Z,0
2016-11-23T03:30:21.585Z,0
2016-11-23T03:31:30.234Z,0
2016-11-23T03:32:38.867Z,0
2016-11-23T03:33:47.513Z,0
2016-11-23T03:34:56.167Z,0
2016-11-23T03:36:04.788Z,0
2016-11-23T03:37:13.437Z,0
2016-11-23T03:38:22.080Z,0
2016-11-23T03:39:30.734Z,0
2016-11-23T03:40:39.397Z,0
2016-11-23T03:41:48.018Z,0
2016-11-23T03:42:56.652Z,0
2016-11-23T03:44:05.294Z,0
2016-11-23T03:45:13.940Z,0
2016-11-23T03:46:22.578Z,0
2016-11-23T03:47:31.209Z,0
2016-11-23T03:48:39.854Z,0
2016-11-23T03:49:48.499Z,0
2016-11-23T03:50:57.145Z,0
2016-11-23T03:52:05.816Z,0
2016-11-23T03:53:14.462Z,0
2016-11-23T03:54:23.100Z,0
2016-11-23T03:55:31.747Z,0
2016-11-23T03:56:40.419Z,0
2016-11-23T03:57:49.047Z,0
2016-11-23T03:58:57.661Z,0
2016-11-23T04:00:06.289Z,0
2016-11-23T04:01:14.970Z,0
2016-11-23T04:02:23.948Z,0
2016-11-23T04:03:32.594Z,0
2016-11-23T04:04:41.215Z,0
2016-11-23T04:05:49.888Z,0
2016-11-23T04:06:58.516Z,0
2016-11-23T04:08:07.488Z,0
2016-11-23T04:09:16.425Z,0
2016-11-23T04:10:25.070Z,0
2016-11-23T04:11:33.709Z,0
2016-11-23T04:12:42.363Z,0
2016-11-23T04:13:51.009Z,0
2016-11-23T04:14:59.605Z,0
2016-11-23T04:16:08.277Z,0
2016-11-23T04:17:17.247Z,0
2016-11-23T04:18:25.893Z,0
2016-11-23T04:19:34.495Z,0
2016-11-23T04:20:43.111Z,0
2016-11-23T04:21:51.765Z,0
2016-11-23T04:23:00.403Z,0
2016-11-23T04:24:09.116Z,0
2016-11-23T04:25:17.787Z,0
2016-11-23T04:26:26.441Z,0
2016-11-23T04:27:35.087Z,0
2016-11-23T04:28:43.742Z,0
2016-11-23T04:29:52.404Z,0
2016-11-23T04:31:01.003Z,0
2016-11-23T04:32:09.647Z,0
2016-11-23T04:33:18.307Z,0
2016-11-23T04:34:26.972Z,0
2016-11-23T04:35:35.643Z,0
2016-11-23T04:36:44.307Z,0
2016-11-23T04:37:52.932Z,0
2016-11-23T04:39:01.582Z,0
2016-11-23T04:40:10.228Z,0
2016-11-23T04:41:18.866Z,0
2016-11-23T04:42:27.545Z,0
2016-11-23T04:43:36.183Z,0
2016-11-23T04:44:44.810Z,0
2016-11-23T04:45:53.434Z,0
2016-11-23T04:47:02.072Z,0
2016-11-23T04:48:10.734Z,0
2016-11-23T04:49:19.373Z,0
2016-11-23T04:50:28.035Z,0
2016-11-23T04:51:36.732Z,0
2016-11-23T04:52:45.410Z,0
2016-11-23T04:53:54.048Z,0
2016-11-23T04:55:02.687Z,0
2016-11-23T04:56:11.295Z,0
2016-11-23T04:57:19.887Z,0
2016-11-23T04:58:28.507Z,0
2016-11-23T04:59:37.154Z,0
2016-11-23T05:00:45.800Z,0
2016-11-23T05:01:54.421Z,0
2016-11-23T05:03:03.028Z,0
2016-11-23T05:04:11.663Z,0
2016-11-23T05:05:20.310Z,4
2016-11-23T05:06:28.984Z,0
2016-11-23T05:07:37.610Z,0
2016-11-23T05:08:46.227Z,0
2016-11-23T05:09:54.894Z,0
2016-11-23T05:11:03.548Z,0
2016-11-23T05:12:12.195Z,0
2016-11-23T05:13:20.841Z,0
2016-11-23T05:14:29.489Z,0
2016-11-23T05:15:38.140Z,0
2016-11-23T05:16:46.789Z,0
2016-11-23T05:17:55.400Z,0
2016-11-23T05:19:04.080Z,0
2016-11-23T05:20:13.034Z,0
2016-11-23T05:21:21.658Z,0
2016-11-23T05:22:30.310Z,0
2016-11-23T05:23:38.981Z,0
2016-11-23T05:24:47.644Z,0
2016-11-23T05:25:56.268Z,0
2016-11-23T05:27:04.920Z,0
2016-11-23T05:28:13.618Z,0
2016-11-23T05:29:22.236Z,0
2016-11-23T05:30:30.907Z,0
2016-11-23T05:31:39.549Z,0
2016-11-23T05:32:48.200Z,0
2016-11-23T05:33:56.846Z,0
2016-11-23T05:35:05.495Z,0
2016-11-23T05:36:14.155Z,0
2016-11-23T05:37:22.777Z,0
2016-11-23T05:38:31.409Z,0
2016-11-23T05:39:40.018Z,0
2016-11-23T05:40:48.664Z,0
2016-11-23T05:41:57.311Z,0
2016-11-23T05:43:05.956Z,0
2016-11-23T05:44:14.578Z,0
2016-11-23T05:45:23.206Z,0
2016-11-23T05:46:31.878Z,0
2016-11-23T05:47:40.543Z,0
2016-11-23T05:48:49.195Z,0
2016-11-23T05:49:57.835Z,0
2016-11-23T05:51:06.432Z,0
2016-11-23T05:52:15.075Z,0
2016-11-23T05:53:23.729Z,0
2016-11-23T05:54:32.375Z,0
2016-11-23T05:55:40.998Z,0
2016-11-23T05:56:49.659Z,0
2016-11-23T05:57:58.304Z,0
2016-11-23T05:59:06.959Z,0
2016-11-23T06:00:15.635Z,4
2016-11-23T06:01:24.269Z,4
2016-11-23T06:02:32.897Z,4
2016-11-23T06:03:41.546Z,4
2016-11-23T06:04:50.489Z,4
2016-11-23T06:05:59.120Z,4
2016-11-23T06:07:07.773Z,0
2016-11-23T06:08:16.402Z,4
2016-11-23T06:09:25.017Z,4
2016-11-23T06:10:33.687Z,4
2016-11-23T06:11:42.312Z,8
2016-11-23T06:12:50.938Z,4
2016-11-23T06:13:59.557Z,8
2016-11-23T06:15:08.495Z,8
2016-11-23T06:16:17.109Z,8
2016-11-23T06:17:25.745Z,12
2016-11-23T06:18:34.384Z,12
2016-11-23T06:19:43.054Z,12
2016-11-23T06:20:51.701Z,20
2016-11-23T06:22:00.350Z,20
2016-11-23T06:23:08.992Z,28
2016-11-23T06:24:17.631Z,32
2016-11-23T06:25:26.284Z,32
2016-11-23T06:26:34.913Z,40
2016-11-23T06:27:43.589Z,44
2016-11-23T06:28:52.222Z,52
2016-11-23T06:30:00.851Z,60
2016-11-23T06:31:09.502Z,68
2016-11-23T06:32:18.160Z,72
2016-11-23T06:33:26.790Z,80
2016-11-23T06:34:35.461Z,88
2016-11-23T06:35:44.107Z,100
2016-11-23T06:36:52.723Z,108
2016-11-23T06:38:01.366Z,116
2016-11-23T06:39:09.996Z,124
2016-11-23T06:40:18.651Z,140
2016-11-23T06:41:27.279Z,152
2016-11-23T06:42:35.950Z,168
2016-11-23T06:43:44.572Z,188
2016-11-23T06:44:53.219Z,208
2016-11-23T06:46:01.868Z,228
2016-11-23T06:47:10.537Z,256
2016-11-23T06:48:19.174Z,284
2016-11-23T06:49:27.780Z,320
2016-11-23T06:50:36.484Z,360
2016-11-23T06:51:45.120Z,396
2016-11-23T06:52:53.774Z,444
2016-11-23T06:54:02.429Z,492
2016-11-23T06:55:11.091Z,552
2016-11-23T06:56:19.741Z,620
2016-11-23T06:57:28.408Z,692
2016-11-23T06:58:37.046Z,768
2016-11-23T06:59:45.701Z,840
2016-11-23T07:00:54.313Z,932
2016-11-23T07:02:02.935Z,1044
2016-11-23T07:03:11.530Z,1140
2016-11-23T07:04:20.152Z,1236
2016-11-23T07:05:28.823Z,1304
2016-11-23T07:06:37.444Z,1360
2016-11-23T07:07:46.073Z,1420
2016-11-23T07:08:54.719Z,1484
2016-11-23T07:10:03.399Z,1516
2016-11-23T07:11:12.028Z,1528
2016-11-23T07:12:20.624Z,1548
2016-11-23T07:13:29.253Z,1568
2016-11-23T07:14:37.899Z,1588
2016-11-23T07:15:46.563Z,1596
2016-11-23T07:16:55.209Z,1604
2016-11-23T07:18:03.841Z,1628
2016-11-23T07:19:12.475Z,1680
2016-11-23T07:20:21.097Z,1716
2016-11-23T07:21:29.742Z,1816
2016-11-23T07:22:38.382Z,1868
2016-11-23T07:23:47.314Z,1924
2016-11-23T07:24:55.939Z,2008
2016-11-23T07:26:04.611Z,2088
2016-11-23T07:27:13.248Z,2160
2016-11-23T07:28:21.887Z,2200
2016-11-23T07:29:30.573Z,2232
2016-11-23T07:30:39.244Z,2296
2016-11-23T07:31:47.883Z,2364
2016-11-23T07:32:56.554Z,2436
2016-11-23T07:34:05.184Z,2496
2016-11-23T07:35:13.804Z,2572
2016-11-23T07:36:22.466Z,2660
2016-11-23T07:37:31.101Z,2676
2016-11-23T07:38:39.743Z,2676
2016-11-23T07:39:48.382Z,2660
2016-11-23T07:40:56.989Z,2648
2016-11-23T07:42:05.646Z,2688
2016-11-23T07:43:14.272Z,2728
2016-11-23T07:44:22.897Z,2764
2016-11-23T07:45:31.553Z,2816
2016-11-23T07:46:40.234Z,2880
2016-11-23T07:47:48.910Z,2960
2016-11-23T07:48:57.548Z,3076
2016-11-23T07:50:06.175Z,3216
2016-11-23T07:51:14.815Z,3356
2016-11-23T07:52:23.444Z,3476
2016-11-23T07:53:32.070Z,3528
2016-11-23T07:54:40.729Z,3624
2016-11-23T07:55:49.377Z,3664
2016-11-23T07:56:58.003Z,3712
2016-11-23T07:58:06.675Z,3732
2016-11-23T07:59:15.696Z,3764
2016-11-23T08:00:24.343Z,3756
2016-11-23T08:01:32.958Z,3800
2016-11-23T08:02:41.609Z,3840
2016-11-23T08:03:50.230Z,3880
2016-11-23T08:04:58.893Z,4020
2016-11-23T08:06:07.569Z,4124
2016-11-23T08:07:16.174Z,4228
2016-11-23T08:08:24.839Z,4328
2016-11-23T08:09:33.477Z,4432
2016-11-23T08:10:42.148Z,4604
2016-11-23T08:11:50.794Z,4748
2016-11-23T08:12:59.399Z,4748
2016-11-23T08:14:08.062Z,4620
2016-11-23T08:15:16.710Z,4380
2016-11-23T08:16:25.328Z,4224
2016-11-23T08:17:33.958Z,4152
2016-11-23T08:18:42.654Z,4144
2016-11-23T08:19:51.325Z,4176
2016-11-23T08:20:59.988Z,4240
2016-11-23T08:22:08.651Z,4320
2016-11-23T08:23:17.306Z,4384
2016-11-23T08:24:25.911Z,4428
2016-11-23T08:25:34.581Z,4468
2016-11-23T08:26:43.243Z,4504
2016-11-23T08:27:51.865Z,4552
2016-11-23T08:29:00.511Z,4576
2016-11-23T08:30:09.157Z,4548
2016-11-23T08:31:17.821Z,4532
2016-11-23T08:32:26.483Z,4512
2016-11-23T08:33:35.131Z,4448
2016-11-23T08:34:43.792Z,4364
2016-11-23T08:35:52.471Z,4268
2016-11-23T08:37:01.134Z,4232
2016-11-23T08:38:09.831Z,4240
2016-11-23T08:39:18.481Z,4264
2016-11-23T08:40:27.148Z,4288
2016-11-23T08:41:35.811Z,4312
2016-11-23T08:42:44.474Z,4356
2016-11-23T08:43:53.145Z,4412
2016-11-23T08:45:01.834Z,4468
2016-11-23T08:46:10.504Z,4496
2016-11-23T08:47:19.110Z,4528
2016-11-23T08:48:27.805Z,4584
2016-11-23T08:49:36.418Z,4668
2016-11-23T08:50:45.064Z,4752
2016-11-23T08:51:53.709Z,4812
2016-11-23T08:53:02.331Z,4908
2016-11-23T08:54:10.961Z,5052
2016-11-23T08:55:19.610Z,5220
2016-11-23T08:56:28.278Z,5348
2016-11-23T08:57:36.941Z,5508
2016-11-23T08:58:45.567Z,5644
2016-11-23T08:59:54.183Z,5776
2016-11-23T09:01:02.812Z,5864
2016-11-23T09:02:11.484Z,5892
2016-11-23T09:03:20.148Z,5932
2016-11-23T09:04:28.826Z,5992
2016-11-23T09:05:37.497Z,6020
2016-11-23T09:06:46.168Z,6024
2016-11-23T09:07:54.809Z,5948
2016-11-23T09:09:03.452Z,5896
2016-11-23T09:10:12.140Z,5784
2016-11-23T09:11:20.795Z,5688
2016-11-23T09:12:29.440Z,5592
2016-11-23T09:13:38.095Z,5528
2016-11-23T09:14:46.752Z,5480
2016-11-23T09:15:55.404Z,5444
2016-11-23T09:17:04.051Z,5364
2016-11-23T09:18:12.730Z,5328
2016-11-23T09:19:21.371Z,5268
2016-11-23T09:20:29.989Z,5244
2016-11-23T09:21:38.635Z,5240
2016-11-23T09:22:47.331Z,5308
2016-11-23T09:23:56.010Z,5376
2016-11-23T09:25:04.673Z,5556
2016-11-23T09:26:13.294Z,5972
2016-11-23T09:27:21.924Z,6068
2016-11-23T09:28:30.612Z,6084
2016-11-23T09:29:39.233Z,6016
2016-11-23T09:30:47.863Z,5912
2016-11-23T09:31:56.480Z,5712
2016-11-23T09:33:05.122Z,5480
2016-11-23T09:34:13.776Z,5448
2016-11-23T09:35:22.420Z,5508
2016-11-23T09:36:31.052Z,5608
2016-11-23T09:37:39.706Z,5816
2016-11-23T09:38:48.361Z,6124
2016-11-23T09:39:57.000Z,6332
2016-11-23T09:41:05.608Z,6400
2016-11-23T09:42:14.266Z,6316
2016-11-23T09:43:22.895Z,6140
2016-11-23T09:44:31.842Z,6144
2016-11-23T09:45:40.479Z,6248
2016-11-23T09:46:49.101Z,6484
2016-11-23T09:47:57.765Z,6872
2016-11-23T09:49:06.395Z,6908
2016-11-23T09:50:15.072Z,6912
2016-11-23T09:51:23.769Z,6856
2016-11-23T09:52:32.382Z,6856
2016-11-23T09:53:41.304Z,6844
2016-11-23T09:54:49.900Z,6888
2016-11-23T09:55:58.537Z,6928
2016-11-23T09:57:07.142Z,7008
2016-11-23T09:58:15.797Z,7136
2016-11-23T09:59:24.468Z,7220
2016-11-23T10:00:33.106Z,7308
2016-11-23T10:01:41.784Z,7448
2016-11-23T10:02:50.432Z,7572
2016-11-23T10:03:59.119Z,7516
2016-11-23T10:05:07.740Z,7460
2016-11-23T10:06:16.394Z,7132
2016-11-23T10:07:25.065Z,6840
2016-11-23T10:08:33.737Z,6728
2016-11-23T10:09:42.408Z,6704
2016-11-23T10:10:51.071Z,6524
2016-11-23T10:11:59.725Z,6220
2016-11-23T10:13:08.339Z,6088
2016-11-23T10:14:16.961Z,5932
2016-11-23T10:15:25.630Z,5872
2016-11-23T10:16:34.277Z,5656
2016-11-23T10:17:42.922Z,5388
2016-11-23T10:18:51.602Z,5284
2016-11-23T10:20:00.249Z,5120
2016-11-23T10:21:08.920Z,5204
2016-11-23T10:22:17.633Z,5216
2016-11-23T10:23:26.329Z,5200
2016-11-23T10:24:34.984Z,5076
2016-11-23T10:25:43.624Z,5124
2016-11-23T10:26:52.243Z,5128
2016-11-23T10:28:00.874Z,5040
2016-11-23T10:29:09.515Z,5020
2016-11-23T10:30:18.167Z,4868
2016-11-23T10:31:26.836Z,4776
2016-11-23T10:32:35.473Z,4920
2016-11-23T10:33:44.146Z,4812
2016-11-23T10:34:52.773Z,4696
2016-11-23T10:36:01.437Z,4460
2016-11-23T10:37:10.100Z,4296
2016-11-23T10:38:18.754Z,4160
2016-11-23T10:39:27.400Z,4024
2016-11-23T10:40:36.046Z,3884
2016-11-23T10:41:44.650Z,3688
2016-11-23T10:42:53.326Z,3604
2016-11-23T10:44:01.968Z,3392
2016-11-23T10:45:10.639Z,3224
2016-11-23T10:46:19.645Z,3092
2016-11-23T10:47:28.277Z,2992
2016-11-23T10:48:36.936Z,2956
2016-11-23T10:49:45.599Z,2952
2016-11-23T10:50:54.245Z,2944
2016-11-23T10:52:02.860Z,2976
2016-11-23T10:53:11.512Z,3100
2016-11-23T10:54:20.179Z,3200
2016-11-23T10:55:28.880Z,3268
2016-11-23T10:56:37.542Z,3380
2016-11-23T10:57:46.164Z,3424
2016-11-23T10:58:54.835Z,3452
2016-11-23T11:00:03.482Z,3472
2016-11-23T11:01:12.152Z,3408
2016-11-23T11:02:20.833Z,3432
2016-11-23T11:03:29.495Z,3432
2016-11-23T11:04:38.421Z,3404
2016-11-23T11:05:47.096Z,3384
2016-11-23T11:06:55.742Z,3356
2016-11-23T11:08:04.397Z,3340
2016-11-23T11:09:13.084Z,3460
2016-11-23T11:10:21.722Z,3556
2016-11-23T11:11:30.351Z,3620
2016-11-23T11:12:39.023Z,3516
2016-11-23T11:13:47.724Z,3536
2016-11-23T11:14:56.432Z,3580
2016-11-23T11:16:05.111Z,3628
2016-11-23T11:17:13.782Z,3632
2016-11-23T11:18:22.446Z,3512
2016-11-23T11:19:31.116Z,3636
2016-11-23T11:20:39.747Z,3868
2016-11-23T11:21:48.417Z,3872
2016-11-23T11:22:57.056Z,3912
2016-11-23T11:24:05.676Z,4120
2016-11-23T11:25:14.304Z,4240
2016-11-23T11:26:22.956Z,3948
2016-11-23T11:27:31.632Z,4024
2016-11-23T11:28:40.269Z,4036
2016-11-23T11:29:48.906Z,4072
2016-11-23T11:30:57.561Z,3884
2016-11-23T11:32:06.242Z,4360
2016-11-23T11:33:14.878Z,4476
2016-11-23T11:34:23.551Z,4308
2016-11-23T11:35:32.512Z,4292
2016-11-23T11:36:41.136Z,4160
2016-11-23T11:37:49.772Z,4056
2016-11-23T11:38:58.409Z,3988
2016-11-23T11:40:07.071Z,3824
2016-11-23T11:41:15.726Z,3704
2016-11-23T11:42:24.389Z,3724
2016-11-23T11:43:33.019Z,3660
2016-11-23T11:44:41.664Z,3552
2016-11-23T11:45:50.329Z,3432
2016-11-23T11:46:58.982Z,3364
2016-11-23T11:48:07.645Z,3240
2016-11-23T11:49:16.291Z,3260
2016-11-23T11:50:24.970Z,3248
2016-11-23T11:51:33.612Z,3316
2016-11-23T11:52:42.254Z,3324
2016-11-23T11:53:50.879Z,3496
2016-11-23T11:54:59.505Z,3656
2016-11-23T11:56:09.052Z,3724
2016-11-23T11:57:18.313Z,3572
2016-11-23T11:58:26.943Z,3636
2016-11-23T11:59:35.639Z,3660
2016-11-23T12:00:44.307Z,3964
2016-11-23T12:01:52.931Z,4128
2016-11-23T12:03:01.581Z,4124
2016-11-23T12:04:10.218Z,4084
2016-11-23T12:05:18.845Z,4044
2016-11-23T12:06:27.522Z,3880
2016-11-23T12:07:36.187Z,3900
2016-11-23T12:08:44.827Z,3780
2016-11-23T12:09:53.464Z,3696
2016-11-23T12:11:02.118Z,3552
2016-11-23T12:12:10.764Z,3512
2016-11-23T12:13:19.407Z,3484
2016-11-23T12:14:28.043Z,3504
2016-11-23T12:15:36.686Z,3556
2016-11-23T12:16:45.356Z,3584
2016-11-23T12:17:54.002Z,3684
2016-11-23T12:19:02.642Z,3852
2016-11-23T12:20:11.286Z,4024
2016-11-23T12:21:19.915Z,4168
2016-11-23T12:22:28.564Z,4292
2016-11-23T12:23:37.225Z,4360
2016-11-23T12:24:45.879Z,4448
2016-11-23T12:25:54.542Z,4536
2016-11-23T12:27:03.187Z,4712
2016-11-23T12:28:11.842Z,4888
2016-11-23T12:29:20.555Z,5032
2016-11-23T12:30:29.218Z,5120
2016-11-23T12:31:37.882Z,5152
2016-11-23T12:32:46.569Z,5200
2016-11-23T12:33:55.220Z,5284
2016-11-23T12:35:04.195Z,5360
2016-11-23T12:36:12.857Z,5348
2016-11-23T12:37:21.503Z,5356
2016-11-23T12:38:30.157Z,5324
2016-11-23T12:39:38.804Z,5292
2016-11-23T12:40:47.509Z,5260
2016-11-23T12:41:56.170Z,5212
2016-11-23T12:43:04.825Z,5076
2016-11-23T12:44:13.513Z,4916
2016-11-23T12:45:22.209Z,4772
2016-11-23T12:46:30.864Z,4648
2016-11-23T12:47:39.818Z,4532
2016-11-23T12:48:48.439Z,4424
2016-11-23T12:49:57.094Z,4332
2016-11-23T12:51:05.764Z,4276
2016-11-23T12:52:14.402Z,4216
2016-11-23T12:53:23.031Z,4172
2016-11-23T12:54:31.670Z,4108
2016-11-23T12:55:40.299Z,4056
2016-11-23T12:56:48.957Z,4004
2016-11-23T12:57:57.632Z,3980
2016-11-23T12:59:06.287Z,3964
2016-11-23T13:00:14.917Z,3944
2016-11-23T13:01:23.571Z,3924
2016-11-23T13:02:32.229Z,3892
2016-11-23T13:03:40.863Z,3964
2016-11-23T13:04:49.518Z,4096
2016-11-23T13:05:58.205Z,4264
2016-11-23T13:07:06.877Z,4440
2016-11-23T13:08:15.540Z,4636
2016-11-23T13:09:24.202Z,4860
2016-11-23T13:10:32.840Z,5092
2016-11-23T13:11:41.490Z,5288
2016-11-23T13:12:50.115Z,5436
2016-11-23T13:13:58.728Z,5492
2016-11-23T13:15:07.386Z,5520
2016-11-23T13:16:16.053Z,5464
2016-11-23T13:17:24.708Z,5420
2016-11-23T13:18:33.337Z,5280
2016-11-23T13:19:41.992Z,4972
2016-11-23T13:20:50.655Z,4548
2016-11-23T13:21:59.351Z,4136
2016-11-23T13:23:08.325Z,3796
2016-11-23T13:24:16.953Z,3536
2016-11-23T13:25:25.953Z,3376
2016-11-23T13:26:34.610Z,2184
2016-11-23T14:10:07.536Z,1040
2016-11-23T14:10:44.810Z,1040
2016-11-23T14:11:55.555Z,1052
2016-11-23T14:13:06.651Z,1048
2016-11-23T14:14:17.374Z,1048
2016-11-23T14:15:28.151Z,1032
2016-11-23T14:16:38.921Z,984
2016-11-23T14:17:49.709Z,1040
